Monday, June 25, 2018, 12:41 AM GMT
Back to Local

CYPQ, Peterborough Airport

Location: , , Canada Lat: 44.233
Local Time: 12:41 AM GMT ( 0:41 GMT) Lon: -78.367
Time Zone: GMT Elev: 626 ft

Show me the last for .
Show Decoded

2018-06-25 00:16 METAR CYPQ 250016Z AUTO 32004KT 9SM SCT060 BKN072 OVC088 18/17 A2994 RMK SLP142
                 DENSITY ALT 1000FT =
2018-06-25 00:00 METAR CYPQ 250000Z AUTO 30006KT 9SM -RA FEW042 SCT050 OVC085 18/17 A2993 RMK
                 PCPN 0.8MM PAST HR SLP138 DENSITY ALT 1000FT =
2018-06-24 23:50 METAR CYPQ 242350Z AUTO 31006KT 9SM -RA SCT042 BKN050 OVC080 18/17 A2993 RMK
                 SLP138 DENSITY ALT 1100FT =
2018-06-24 23:45 METAR CYPQ 242345Z AUTO 31006KT 9SM SCT042 BKN050 OVC075 18/17 A2993 RMK SLP138
                 DENSITY ALT 1100FT =
2018-06-24 23:03 METAR CYPQ 242303Z AUTO 32013G19KT 9SM -RA SCT032 SCT044 BKN060 OVC170 20/17
                 A2992 RMK SLP132 DENSITY ALT 1300FT =
2018-06-24 23:00 METAR CYPQ 242300Z AUTO 31014G19KT 9SM FEW032 SCT046 BKN060 BKN120 21/17 A2991
                 RMK SLP130 DENSITY ALT 1400FT =
2018-06-24 22:00 METAR CYPQ 242200Z AUTO 29005KT 270V330 9SM SCT140 22/16 A2990 RMK SLP126
                 DENSITY ALT 1500FT =
2018-06-24 21:00 METAR CYPQ 242100Z AUTO 33005KT 9SM CLR 21/16 A2988 RMK SLP120 DENSITY ALT
                 1500FT =
2018-06-24 20:00 METAR CYPQ 242000Z AUTO 33004KT 310V020 9SM CLR 21/16 A2988 RMK SLP120 DENSITY
                 ALT 1400FT =
2018-06-24 19:49 METAR CYPQ 241949Z AUTO 33006KT 7SM FEW033 SCT040 SCT110 20/16 A2988 RMK SLP120
                 DENSITY ALT 1400FT =
2018-06-24 19:27 METAR CYPQ 241927Z AUTO 31005KT 9SM -RA FEW032 SCT041 SCT090 SCT110 20/16 A2987
                 RMK SLP118 DENSITY ALT 1400FT =
2018-06-24 19:00 METAR CYPQ 241900Z AUTO VRB03KT 9SM FEW120 20/15 A2987 RMK SLP116 DENSITY ALT
                 1400FT =
2018-06-24 18:20 METAR CYPQ 241820Z AUTO 30003KT 9SM FEW036 BKN120 19/17 A2986 RMK SLP113 DENSITY
                 ALT 1300FT =
2018-06-24 18:00 METAR CYPQ 241800Z AUTO 00000KT 9SM -RA FEW036 SCT048 BKN075 BKN096 18/16 A2986
                 RMK PCPN 0.5MM PAST HR SLP113 DENSITY ALT 1200FT =
2018-06-24 17:42 METAR CYPQ 241742Z AUTO 36003KT 340V100 9SM -RA FEW055 BKN099 OVC120 18/15 A2985
                 RMK SLP110 DENSITY ALT 1200FT =
2018-06-24 17:00 METAR CYPQ 241700Z AUTO VRB02KT 9SM BKN120 BKN140 19/15 A2987 RMK SLP117 DENSITY
                 ALT 1200FT =
2018-06-24 16:39 METAR CYPQ 241639Z AUTO 11002KT 9SM FEW110 BKN130 19/15 A2987 RMK SLP117 DENSITY
                 ALT 1200FT =
2018-06-24 16:29 METAR CYPQ 241629Z AUTO 10002KT 9SM -RA SCT110 BKN130 19/14 A2987 RMK SLP117
                 DENSITY ALT 1200FT =
2018-06-24 16:00 METAR CYPQ 241600Z AUTO 07003KT 030V100 9SM FEW070 BKN140 19/14 A2986 RMK SLP114
                 DENSITY ALT 1200FT =
2018-06-24 15:18 METAR CYPQ 241518Z AUTO 05006KT 9SM FEW021 SCT070 BKN130 19/15 A2985 RMK SLP110
                 DENSITY ALT 1300FT =
2018-06-24 15:03 METAR CYPQ 241503Z AUTO 07004KT 030V100 9SM -RA FEW021 SCT130 BKN160 19/15 A2985
                 RMK SLP109 DENSITY ALT 1300FT =
2018-06-24 15:00 METAR CYPQ 241500Z AUTO 06005KT 9SM FEW021 SCT065 SCT140 BKN160 19/15 A2984 RMK
                 SLP108 DENSITY ALT 1300FT =
2018-06-24 14:45 METAR CYPQ 241445Z AUTO 06005KT 010V090 9SM SCT019 BKN065 BKN160 19/15 A2984 RMK
                 SLP106 DENSITY ALT 1300FT =
2018-06-24 14:13 METAR CYPQ 241413Z AUTO 06007KT 9SM BKN017 BKN070 BKN088 19/16 A2983 RMK SLP103
                 DENSITY ALT 1300FT =
2018-06-24 14:00 METAR CYPQ 241400Z AUTO 05006KT 9SM SCT017 BKN046 BKN070 BKN088 19/16 A2983 RMK
                 SLP103 DENSITY ALT 1300FT =
2018-06-24 13:50 METAR CYPQ 241350Z AUTO 06006KT 040V100 9SM SCT015 SCT020 BKN046 OVC070 19/16
                 A2983 RMK SLP104 DENSITY ALT 1200FT =
2018-06-24 13:00 METAR CYPQ 241300Z AUTO 07004KT 9SM BKN011 BKN043 18/16 A2983 RMK SLP105 DENSITY
                 ALT 1200FT =
2018-06-24 12:59 METAR CYPQ 241259Z AUTO 07005KT 9SM BKN011 BKN043 18/16 A2983 RMK SLP105 DENSITY
                 ALT 1200FT =
2018-06-24 12:51 METAR CYPQ 241251Z AUTO 05005KT 9SM BKN009 BKN043 OVC065 18/16 A2983 RMK SLP104
                 DENSITY ALT 1200FT =
2018-06-24 12:43 METAR CYPQ 241243Z AUTO 05005KT 020V120 9SM SCT009 BKN043 OVC070 18/16 A2983 RMK
                 SLP104 DENSITY ALT 1100FT =
2018-06-24 12:33 METAR CYPQ 241233Z AUTO 06004KT 040V110 9SM BKN011 BKN065 OVC082 17/16 A2983 RMK
                 SLP103 DENSITY ALT 1100FT =
2018-06-24 12:31 METAR CYPQ 241231Z AUTO 07005KT 040V110 9SM SCT011 OVC065 17/16 A2983 RMK SLP103
                 DENSITY ALT 1100FT =
2018-06-24 12:26 METAR CYPQ 241226Z AUTO 07003KT 040V110 9SM FEW007 BKN011 OVC065 17/16 A2983 RMK
                 SLP102 DENSITY ALT 1100FT =
2018-06-24 12:25 METAR CYPQ 241225Z AUTO 08004KT 040V110 9SM BKN009 BKN014 OVC065 17/16 A2983 RMK
                 SLP102 DENSITY ALT 1100FT =
2018-06-24 12:12 METAR CYPQ 241212Z AUTO 05005KT 9SM SCT008 BKN012 OVC023 17/16 A2983 RMK SLP104
                 DENSITY ALT 1100FT =
2018-06-24 12:00 METAR CYPQ 241200Z AUTO 03004KT 9SM BKN008 OVC013 17/16 A2983 RMK SLP103 DENSITY
                 ALT 1000FT =
2018-06-24 11:30 METAR CYPQ 241130Z AUTO 03004KT 350V050 9SM OVC008 17/16 A2982 RMK SLP100
                 DENSITY ALT 1000FT =
2018-06-24 11:00 METAR CYPQ 241100Z AUTO 00000KT 9SM OVC006 16/16 A2982 RMK SLP100 DENSITY ALT
                 1000FT =
2018-06-24 10:52 METAR CYPQ 241052Z AUTO 25002KT 9SM OVC006 16/16 A2982 RMK SLP100 DENSITY ALT
                 1000FT =
2018-06-24 10:00 METAR CYPQ 241000Z AUTO VRB02KT 9SM OVC016 16/16 A2980 RMK SLP094 DENSITY ALT
                 1000FT =
2018-06-24 09:15 METAR CYPQ 240915Z AUTO 05003KT 9SM SCT007 BKN012 BKN027 OVC055 16/15 A2979 RMK
                 SLP089 DENSITY ALT 1000FT
2018-06-24 09:12 METAR CYPQ 240912Z AUTO 06002KT 9SM SCT007 SCT012 BKN027 OVC055 16/15 A2979 RMK
                 SLP089 DENSITY ALT 1000FT =
2018-06-24 09:01 METAR CYPQ 240901Z AUTO VRB02KT 9SM SCT007 BKN012 OVC055 16/16 A2979 RMK SLP089
                 DENSITY ALT 1000FT =
2018-06-24 09:00 METAR CYPQ 240900Z AUTO VRB02KT 9SM BKN007 BKN012 OVC055 16/16 A2979 RMK SLP089
                 DENSITY ALT 1000FT =
2018-06-24 08:48 METAR CYPQ 240848Z AUTO 00000KT 9SM BKN007 BKN012 OVC050 16/15 A2979 RMK SLP090
                 DENSITY ALT 1000FT =
2018-06-24 08:42 METAR CYPQ 240842Z AUTO 00000KT 9SM SCT007 BKN012 OVC055 16/15 A2979 RMK SLP089
                 DENSITY ALT 1000FT =
2018-06-24 08:00 METAR CYPQ 240800Z AUTO 03003KT 9SM SCT007 OVC055 16/16 A2977 RMK SLP083 DENSITY
                 ALT 1000FT =
2018-06-24 07:57 METAR CYPQ 240757Z AUTO 03003KT 9SM SCT007 OVC055 16/16 A2977 RMK SLP083 DENSITY
                 ALT 1000FT =
2018-06-24 07:00 METAR CYPQ 240700Z AUTO 00000KT 9SM OVC007 16/16 A2978 RMK SLP086 DENSITY ALT
                 1000FT =
2018-06-24 06:00 METAR CYPQ 240600Z AUTO 05002KT 9SM OVC007 16/16 A2977 RMK SLP084 DENSITY ALT
                 1000FT =
2018-06-24 05:00 METAR CYPQ 240500Z AUTO 28004KT 9SM OVC005 16/15 A2979 RMK SLP091 DENSITY ALT
                 1000FT =
2018-06-24 04:32 METAR CYPQ 240432Z AUTO VRB02KT 9SM BKN005 BKN011 OVC047 16/15 A2978 RMK SLP086
                 DENSITY ALT 1000FT =
2018-06-24 04:00 METAR CYPQ 240400Z AUTO 06003KT 8SM FEW005 BKN011 BKN022 OVC045 16/15 A2977 RMK
                 SLP083 DENSITY ALT 1000FT =
2018-06-24 03:37 METAR CYPQ 240337Z AUTO 03004KT 6SM BR SCT004 BKN010 BKN017 OVC040 16/15 A2977
                 RMK SLP085 DENSITY ALT 1000FT =
2018-06-24 03:34 METAR CYPQ 240334Z AUTO 05003KT 350V060 4SM BR SCT004 BKN010 BKN015 OVC040 16/15
                 A2977 RMK SLP085 DENSITY ALT 1000FT =
2018-06-24 03:18 METAR CYPQ 240318Z AUTO 01003KT 5SM BR BKN004 BKN014 OVC019 16/15 A2978 RMK
                 SLP086 DENSITY ALT 1000FT =
2018-06-24 03:17 METAR CYPQ 240317Z AUTO 01003KT 360V060 6SM BR BKN004 BKN014 OVC019 16/15 A2978
                 RMK SLP086 DENSITY ALT 1000FT =
2018-06-24 03:00 METAR CYPQ 240300Z AUTO 06003KT 030V110 6SM BR SCT006 BKN011 OVC017 16/15 A2978
                 RMK SLP086 DENSITY ALT 1000FT =
2018-06-24 02:54 METAR CYPQ 240254Z AUTO 07003KT 030V110 6SM BR SCT006 BKN011 OVC017 16/15 A2978
                 RMK SLP086 DENSITY ALT 1000FT =
2018-06-24 02:51 METAR CYPQ 240251Z AUTO 07003KT 020V100 3SM BR BKN006 OVC011 16/15 A2977 RMK
                 SLP085 DENSITY ALT 1000FT =
2018-06-24 02:50 METAR CYPQ 240250Z AUTO 07003KT 020V090 3SM BR SCT006 OVC011 16/15 A2977 RMK
                 SLP085 DENSITY ALT 1000FT =
2018-06-24 02:48 METAR CYPQ 240248Z AUTO 06003KT 020V090 3SM BR BKN006 OVC011 16/15 A2978 RMK
                 SLP086 DENSITY ALT 1000FT =
2018-06-24 02:46 METAR CYPQ 240246Z AUTO 05003KT 2 1/2SM BR BKN006 OVC011 16/15 A2978 RMK SLP087
                 DENSITY ALT 1000FT =
2018-06-24 02:33 METAR CYPQ 240233Z AUTO 03004KT 1 3/4SM BR BKN006 OVC010 16/15 A2978 RMK SLP087
                 DENSITY ALT 1000FT =
2018-06-24 02:25 METAR CYPQ 240225Z AUTO 05006KT 2 1/4SM BR OVC008 16/15 A2978 RMK SLP086 DENSITY
                 ALT 1000FT =
2018-06-24 02:15 METAR CYPQ 240215Z AUTO 04004KT 5SM BR OVC008 16/15 A2979 RMK SLP089 DENSITY ALT
                 1000FT =
2018-06-24 02:00 METAR CYPQ 240200Z AUTO 03004KT 9SM OVC008 16/15 A2978 RMK SLP088 DENSITY ALT
                 1000FT =
2018-06-24 01:00 METAR CYPQ 240100Z AUTO 02003KT 9SM OVC010 17/16 A2976 RMK SLP079 DENSITY ALT
                 1100FT =

Support USWX by starting your Amazon purchase here.